Time;durP1;ratioP1;P1;durP2;ratioP2;P2;SDS_P1;SDS_P2;PMS_P1;PMS_P2;Temp;Humidity;BMP_temperature;BMP_pressure;BME280_temperature;BME280_humidity;BME280_pressure;Samples;Min_cycle;Max_cycle;Signal;HPM_P1;HPM_P2
2022/01/12 08:07:04;;;;;;;9.10;5.78;;;;;;;;;;12972185;22;1528582;-84
2022/01/12 08:12:06;;;;;;;11.07;6.47;;;;;;;;;;12978417;22;20106;-80
2022/01/12 08:17:07;;;;;;;12.95;9.57;;;;;;;;;;12986215;22;20129;-79
2022/01/12 08:22:14;;;;;;;11.95;8.45;;;;;;;;;;12988415;22;19999;-81
2022/01/12 08:27:16;;;;;;;10.75;7.85;;;;;;;;;;12976204;22;20007;-81
2022/01/12 08:32:18;;;;;;;11.10;7.80;;;;;;;;;;12970891;22;20008;-80
2022/01/12 08:37:27;;;;;;;10.82;7.70;;;;;;;;;;12970151;22;20008;-79
2022/01/12 08:43:03;;;;;;;10.25;7.85;;;;;;;;;;12972187;22;20078;-82
2022/01/12 08:48:27;;;;;;;10.40;7.65;;;;;;;;;;13001450;22;20031;-80
2022/01/12 08:53:45;;;;;;;10.60;6.50;;;;;;;;;;12917069;22;20501;-80
2022/01/12 08:59:37;;;;;;;10.30;7.18;;;;;;;;;;12862781;23;20017;-80
2022/01/12 09:10:43;;;;;;;7.97;6.60;;;;;;;;;;12740896;23;19908;-82
2022/01/12 09:16:06;;;;;;;9.25;6.32;;;;;;;;;;12741880;23;20009;-81
2022/01/12 09:21:36;;;;;;;8.55;6.45;;;;;;;;;;12699059;23;20472;-83
2022/01/12 09:27:33;;;;;;;8.23;5.57;;;;;;;;;;12719027;23;20013;-82
2022/01/12 09:33:04;;;;;;;9.48;6.05;;;;;;;;;;12630513;23;20009;-81
2022/01/12 09:38:28;;;;;;;9.15;5.90;;;;;;;;;;12679856;23;20043;-81
2022/01/12 10:01:20;;;;;;;8.73;6.53;;;;;;;;;;12803249;23;20053;-83
2022/01/12 10:12:39;;;;;;;8.25;5.50;;;;;;;;;;12996499;22;20012;-84
2022/01/12 10:18:19;;;;;;;9.77;6.72;;;;;;;;;;12851715;22;20436;-81
2022/01/12 10:52:19;;;;;;;11.45;7.53;;;;;;;;;;12805626;23;20005;-80
2022/01/12 11:09:56;;;;;;;12.75;8.20;;;;;;;;;;13001529;22;20012;-84
2022/01/12 11:15:17;;;;;;;16.23;10.60;;;;;;;;;;13001813;22;20024;-82
2022/01/12 11:20:47;;;;;;;16.52;11.05;;;;;;;;;;12964231;22;20023;-84
2022/01/12 11:26:29;;;;;;;18.33;12.25;;;;;;;;;;12867776;23;20019;-82
2022/01/12 11:32:27;;;;;;;12.73;9.23;;;;;;;;;;12997023;22;20302;-82
2022/01/12 11:43:33;;;;;;;15.77;10.82;;;;;;;;;;13003428;22;20015;-82
2022/01/12 11:54:24;;;;;;;11.65;8.15;;;;;;;;;;13002149;22;20012;-81
2022/01/12 12:05:29;;;;;;;10.70;7.63;;;;;;;;;;13006156;22;20008;-82
2022/01/12 12:16:30;;;;;;;12.88;9.10;;;;;;;;;;13005104;22;20020;-83
2022/01/12 12:21:40;;;;;;;12.50;9.23;;;;;;;;;;12979934;22;20007;-81
2022/01/12 13:01:25;;;;;;;11.80;7.85;;;;;;;;;;12997447;22;20006;-85
2022/01/12 13:06:54;;;;;;;10.02;7.63;;;;;;;;;;12998154;22;20344;-83
2022/01/12 13:18:39;;;;;;;13.65;8.98;;;;;;;;;;12741240;23;20140;-82
2022/01/12 13:24:26;;;;;;;13.75;9.20;;;;;;;;;;12722039;23;20014;-81
2022/01/12 13:40:41;;;;;;;10.10;7.15;;;;;;;;;;12680994;23;19998;-81
2022/01/12 13:46:22;;;;;;;10.40;6.78;;;;;;;;;;12719663;23;20057;-81
2022/01/12 13:57:38;;;;;;;9.48;7.03;;;;;;;;;;12676502;23;20018;-82
2022/01/12 14:25:37;;;;;;;8.93;6.72;;;;;;;;;;12996289;22;20083;-82
2022/01/12 14:31:18;;;;;;;13.07;8.45;;;;;;;;;;12995084;22;20053;-83
2022/01/12 14:37:12;;;;;;;;;;;;;;;;;;;;;
2022/01/12 14:54:10;;;;;;;13.40;9.40;;;;;;;;;;13000622;22;20016;-84
2022/01/12 15:05:35;;;;;;;12.13;8.98;;;;;;;;;;13002612;22;20008;-84
2022/01/12 15:16:20;;;;;;;15.60;11.55;;;;;;;;;;12871267;23;20017;-83
2022/01/12 15:22:01;;;;;;;10.63;8.30;;;;;;;;;;12745063;23;20099;-83
2022/01/12 15:33:38;;;;;;;13.15;9.93;;;;;;;;;;12513259;23;20012;-84
2022/01/12 15:39:18;;;;;;;13.50;10.70;;;;;;;;;;12404783;23;20016;-83
2022/01/12 15:44:37;;;;;;;13.50;9.38;;;;;;;;;;12469526;23;20059;-83
2022/01/12 15:50:06;;;;;;;12.18;10.00;;;;;;;;;;12492169;23;20053;-83
2022/01/12 15:55:42;;;;;;;11.27;9.13;;;;;;;;;;12818435;22;20020;-84
2022/01/12 16:00:44;;;;;;;12.18;9.35;;;;;;;;;;12970412;22;20046;-82
2022/01/12 16:05:45;;;;;;;14.02;10.93;;;;;;;;;;12969559;22;20409;-82
2022/01/12 16:10:46;;;;;;;;;;;;;;;;;;12969012;22;20015;-82
2022/01/12 16:15:47;;;;;;;16.00;11.55;;;;;;;;;;12970006;22;19903;-82
2022/01/12 16:20:48;;;;;;;;;;;;;;;;;;12971298;22;20042;-83
2022/01/12 16:26:24;;;;;;;12.70;10.68;;;;;;;;;;12974418;22;19922;-83
2022/01/12 16:31:57;;;;;;;11.07;8.65;;;;;;;;;;12695443;23;20137;-82
2022/01/12 16:37:27;;;;;;;10.10;8.23;;;;;;;;;;12775958;22;20028;-82
2022/01/12 17:16:33;;;;;;;9.60;7.00;;;;;;;;;;13067503;22;20049;-82
2022/01/12 17:21:34;;;;;;;14.02;10.38;;;;;;;;;;13041175;22;20018;-84
2022/01/12 17:26:35;;;;;;;;;;;;;;;;;;13039889;22;20009;-89
2022/01/12 17:31:37;;;;;;;11.65;10.05;;;;;;;;;;13029928;22;20271;-87
2022/01/12 17:36:40;;;;;;;17.15;10.77;;;;;;;;;;13029836;22;20007;-88
2022/01/12 17:41:43;;;;;;;13.02;9.60;;;;;;;;;;13033707;22;19996;-88
2022/01/12 17:46:45;;;;;;;13.02;10.05;;;;;;;;;;13032770;22;20013;-88
2022/01/12 17:51:47;;;;;;;10.95;8.35;;;;;;;;;;13031633;22;20002;-89
2022/01/12 17:56:54;;;;;;;13.07;9.30;;;;;;;;;;13031105;22;20078;-90
2022/01/12 18:01:58;;;;;;;12.85;8.65;;;;;;;;;;13037641;22;20003;-89
2022/01/12 18:06:59;;;;;;;13.10;9.43;;;;;;;;;;13035566;22;20026;-89
2022/01/12 18:12:00;;;;;;;;;;;;;;;;;;13035985;22;20069;-89
2022/01/12 18:17:01;;;;;;;13.70;9.45;;;;;;;;;;13042413;22;19945;-88
2022/01/12 18:27:33;;;;;;;24.75;16.70;;;;;;;;;;13045163;22;20008;-88
2022/01/12 18:32:34;;;;;;;16.10;10.63;;;;;;;;;;13045695;22;20003;-89
2022/01/12 18:37:35;;;;;;;17.48;12.82;;;;;;;;;;13041777;22;20011;-89
2022/01/12 18:42:36;;;;;;;;;;;;;;;;;;13042025;22;20011;-89
2022/01/12 18:47:37;;;;;;;11.93;8.73;;;;;;;;;;13038190;22;19906;-88
2022/01/12 18:52:38;;;;;;;;;;;;;;;;;;13036475;22;20082;-89
2022/01/12 18:57:39;;;;;;;15.95;12.25;;;;;;;;;;13042563;22;19919;-89
2022/01/12 19:02:42;;;;;;;12.65;10.02;;;;;;;;;;13044267;22;20007;-88
2022/01/12 19:07:44;;;;;;;15.82;11.35;;;;;;;;;;13029691;22;19999;-88
2022/01/12 19:12:45;;;;;;;13.45;10.38;;;;;;;;;;13028203;22;20010;-88
2022/01/12 19:17:46;;;;;;;13.30;9.85;;;;;;;;;;13027883;22;20011;-88
2022/01/12 19:22:56;;;;;;;15.90;11.55;;;;;;;;;;13027888;22;19999;-88
2022/01/12 19:27:58;;;;;;;14.67;10.83;;;;;;;;;;13029617;22;19999;-88
2022/01/12 19:33:02;;;;;;;14.48;11.55;;;;;;;;;;13027402;22;20724;-88
2022/01/12 19:38:03;;;;;;;16.63;12.60;;;;;;;;;;13028855;22;20027;-88
2022/01/12 19:43:04;;;;;;;19.23;13.38;;;;;;;;;;13030977;22;20451;-86
2022/01/12 19:48:05;;;;;;;16.27;12.45;;;;;;;;;;13031494;22;20003;-87
2022/01/12 19:53:28;;;;;;;15.80;11.93;;;;;;;;;;13030778;22;20428;-89
2022/01/12 19:58:35;;;;;;;16.33;12.27;;;;;;;;;;13033974;22;20340;-89
2022/01/12 20:03:41;;;;;;;18.55;13.70;;;;;;;;;;13033274;22;20039;-89
2022/01/12 20:08:45;;;;;;;19.88;15.40;;;;;;;;;;13034965;22;20012;-87
2022/01/12 20:13:47;;;;;;;16.92;13.48;;;;;;;;;;13034932;22;20450;-87
2022/01/12 20:24:23;;;;;;;18.88;14.52;;;;;;;;;;13063453;22;20362;-87
2022/01/12 20:29:24;;;;;;;17.38;14.45;;;;;;;;;;13034664;22;20022;-87
2022/01/12 20:34:26;;;;;;;21.55;16.75;;;;;;;;;;13033596;22;20003;-87
2022/01/12 20:39:27;;;;;;;20.25;16.65;;;;;;;;;;13034069;22;20446;-87
2022/01/12 20:44:31;;;;;;;19.60;15.30;;;;;;;;;;13030094;22;20078;-87
2022/01/12 20:49:33;;;;;;;18.33;14.07;;;;;;;;;;13029553;22;20538;-87
2022/01/12 20:54:36;;;;;;;17.40;13.82;;;;;;;;;;13041413;22;20003;-87
2022/01/12 20:59:39;;;;;;;21.38;17.42;;;;;;;;;;13053600;22;19999;-86
2022/01/12 21:04:47;;;;;;;23.75;18.50;;;;;;;;;;13032942;22;20433;-87
2022/01/12 21:09:48;;;;;;;19.00;15.27;;;;;;;;;;13044453;22;19994;-88
